Terminal Aerodrome Forecast
Issued by NWS North Platte, NE

Home | Current Version | Previous Version | Text Only | Print | Product List | Glossary On
Versions: 1 2 3 4 5 6 7 8 9 10 11 12 13 14 15 16 17 18 19
047
FTUS43 KLBF 271739
TAFLBF
TAF
KLBF 271739Z 2718/2818 36011KT P6SM VCSH OVC035
     FM280200 VRB05KT P6SM SCT250
     FM281400 32012KT P6SM FEW200=

USA.gov is the U.S. government's official web portal to all federal, state and local government web resources and services.